Time;durP1;ratioP1;P1;durP2;ratioP2;P2;SDS_P1;SDS_P2;PMS_P1;PMS_P2;Temp;Humidity;BMP_temperature;BMP_pressure;BME280_temperature;BME280_humidity;BME280_pressure;Samples;Min_cycle;Max_cycle;Signal;HPM_P1;HPM_P2
2022/07/05 05:00:31;;;;;;;3.77;3.17;;;19.20;97.20;;;;;;1718957;28;20192;-72
2022/07/05 05:01:22;;;;;;;3.58;3.05;;;19.20;97.20;;;;;;1722176;28;20205;-72
2022/07/05 05:02:14;;;;;;;3.10;2.90;;;19.30;97.20;;;;;;1727674;28;20269;-72
2022/07/05 05:03:05;;;;;;;5.03;3.00;;;19.30;97.20;;;;;;1727641;28;20456;-72
2022/07/05 05:03:57;;;;;;;3.57;2.80;;;19.30;97.20;;;;;;1727758;28;20201;-72
2022/07/05 05:04:48;;;;;;;4.57;3.05;;;19.30;97.20;;;;;;1727595;28;20456;-71
2022/07/05 05:05:39;;;;;;;3.90;3.23;;;19.30;97.20;;;;;;1727621;28;20715;-71
2022/07/05 05:06:30;;;;;;;3.30;2.72;;;19.30;97.20;;;;;;1727614;28;20231;-71
2022/07/05 05:07:22;;;;;;;7.97;3.07;;;19.30;97.20;;;;;;1727404;28;20207;-72
2022/07/05 05:08:13;;;;;;;4.28;3.08;;;19.30;97.20;;;;;;1727674;28;20675;-71
2022/07/05 05:09:05;;;;;;;8.23;3.10;;;19.40;97.20;;;;;;1727641;28;20636;-71
2022/07/05 05:09:56;;;;;;;4.70;2.95;;;19.40;97.20;;;;;;1727563;28;20204;-72
2022/07/05 05:10:47;;;;;;;3.27;2.70;;;19.40;97.20;;;;;;1726971;28;20300;-72
2022/07/05 05:11:38;;;;;;;7.35;3.30;;;19.40;97.20;;;;;;1727740;28;20443;-72
2022/07/05 05:12:30;;;;;;;3.07;2.77;;;19.40;97.20;;;;;;1727859;28;20212;-72
2022/07/05 05:13:21;;;;;;;2.53;2.33;;;19.50;97.20;;;;;;1727709;28;20219;-72
2022/07/05 05:14:12;;;;;;;3.63;3.03;;;19.50;97.20;;;;;;1727513;28;20287;-72
2022/07/05 05:15:08;;;;;;;3.35;3.05;;;19.50;97.20;;;;;;1725657;28;20603;-72
2022/07/05 05:16:02;;;;;;;3.20;2.92;;;19.50;97.20;;;;;;1720796;28;20243;-71
2022/07/05 05:16:53;;;;;;;4.03;3.00;;;19.50;97.20;;;;;;1720396;28;20205;-71
2022/07/05 05:17:46;;;;;;;3.10;2.80;;;19.50;97.20;;;;;;1723091;28;20237;-71
2022/07/05 05:18:36;;;;;;;4.60;3.08;;;19.60;97.20;;;;;;1727422;28;20221;-71
2022/07/05 05:19:28;;;;;;;3.13;2.57;;;19.60;97.20;;;;;;1727566;28;20291;-72
2022/07/05 05:20:19;;;;;;;3.00;2.70;;;19.60;97.20;;;;;;1722917;28;20207;-71
2022/07/05 05:21:12;;;;;;;2.45;2.25;;;19.60;97.20;;;;;;1714011;28;20203;-70
2022/07/05 05:22:03;;;;;;;3.42;3.13;;;19.60;97.20;;;;;;1713979;28;20201;-71
2022/07/05 05:22:54;;;;;;;3.05;2.60;;;19.70;97.20;;;;;;1714009;28;20854;-71
2022/07/05 05:23:45;;;;;;;5.10;2.97;;;19.70;97.20;;;;;;1713981;28;20661;-71
2022/07/05 05:24:37;;;;;;;3.17;2.87;;;19.70;97.20;;;;;;1719658;28;20642;-71
2022/07/05 05:25:30;;;;;;;5.40;2.88;;;19.70;97.20;;;;;;1720724;28;20209;-72
2022/07/05 05:26:22;;;;;;;3.55;2.60;;;19.70;97.20;;;;;;1727433;28;20205;-72
2022/07/05 05:27:12;;;;;;;2.70;2.50;;;19.70;97.20;;;;;;1726863;28;20211;-71
2022/07/05 05:28:05;;;;;;;3.50;2.63;;;19.70;97.20;;;;;;1726947;28;20287;-72
2022/07/05 05:28:56;;;;;;;2.85;2.55;;;19.80;97.20;;;;;;1727416;28;20227;-72
2022/07/05 05:29:47;;;;;;;2.80;2.30;;;19.80;97.20;;;;;;1727578;28;20206;-71
2022/07/05 05:30:38;;;;;;;2.95;2.75;;;19.80;97.20;;;;;;1717501;28;20201;-72
2022/07/05 05:31:31;;;;;;;3.90;2.63;;;19.80;97.20;;;;;;1713941;28;20200;-71
2022/07/05 05:32:22;;;;;;;3.03;2.72;;;19.80;97.20;;;;;;1713925;28;20575;-72
2022/07/05 05:33:14;;;;;;;2.53;2.33;;;19.80;97.20;;;;;;1714021;28;20206;-71
2022/07/05 05:34:05;;;;;;;3.45;2.60;;;19.80;97.20;;;;;;1713948;28;20210;-71
2022/07/05 05:34:56;;;;;;;3.00;2.70;;;19.90;97.20;;;;;;1713938;28;20202;-72
2022/07/05 05:35:47;;;;;;;2.78;2.58;;;19.90;97.20;;;;;;1713938;28;20584;-72
2022/07/05 05:36:39;;;;;;;4.00;2.50;;;19.90;97.20;;;;;;1713640;28;20224;-72
2022/07/05 05:37:30;;;;;;;4.22;2.65;;;19.90;97.20;;;;;;1713812;28;20279;-72
2022/07/05 05:38:22;;;;;;;3.27;2.40;;;20.00;97.20;;;;;;1713923;28;20210;-72
2022/07/05 05:39:13;;;;;;;3.60;2.60;;;20.00;97.20;;;;;;1714036;28;20208;-71
2022/07/05 05:40:05;;;;;;;3.97;2.50;;;20.00;97.20;;;;;;1743595;22;20235;-75
2022/07/05 05:40:56;;;;;;;3.00;2.55;;;20.00;97.20;;;;;;1745180;28;20461;-74
2022/07/05 05:41:48;;;;;;;2.63;2.43;;;20.00;97.20;;;;;;1747962;28;20198;-74
2022/07/05 05:42:39;;;;;;;2.42;2.22;;;20.00;97.20;;;;;;1747918;28;20195;-75
2022/07/05 05:43:30;;;;;;;3.60;2.40;;;20.00;97.20;;;;;;1747902;28;20316;-74
2022/07/05 05:44:21;;;;;;;2.72;2.50;;;20.00;97.20;;;;;;1747848;28;20202;-74
2022/07/05 05:45:13;;;;;;;4.43;2.40;;;20.00;97.20;;;;;;1747998;28;20290;-74
2022/07/05 05:46:04;;;;;;;2.78;2.28;;;20.00;97.20;;;;;;1747873;28;20712;-74
2022/07/05 05:46:57;;;;;;;2.30;2.10;;;20.00;97.20;;;;;;1747609;28;20685;-75
2022/07/05 05:47:50;;;;;;;2.38;2.00;;;20.10;97.20;;;;;;1747889;28;20440;-74
2022/07/05 05:48:41;;;;;;;2.90;2.42;;;20.10;97.20;;;;;;1747902;28;20635;-75
2022/07/05 05:49:32;;;;;;;2.60;1.90;;;20.20;97.20;;;;;;1747887;28;20225;-74
2022/07/05 05:50:26;;;;;;;2.60;2.10;;;20.20;97.20;;;;;;1747777;28;20807;-75
2022/07/05 05:51:16;;;;;;;3.78;2.25;;;20.20;97.20;;;;;;1747555;28;20574;-75
2022/07/05 05:52:08;;;;;;;3.00;2.03;;;20.20;97.20;;;;;;1747593;28;20618;-74
2022/07/05 05:53:00;;;;;;;5.97;2.50;;;20.20;97.20;;;;;;1742329;28;20202;-75
2022/07/05 05:53:51;;;;;;;2.08;1.88;;;20.30;97.20;;;;;;1747823;28;20260;-75
2022/07/05 05:54:42;;;;;;;5.28;2.30;;;20.30;97.20;;;;;;1747822;28;20198;-74
2022/07/05 05:55:35;;;;;;;2.00;1.67;;;20.30;97.20;;;;;;1747920;28;20285;-75
2022/07/05 05:56:26;;;;;;;2.13;1.70;;;20.30;97.20;;;;;;1747658;28;20210;-73
2022/07/05 05:57:18;;;;;;;2.22;1.73;;;20.30;97.20;;;;;;1747528;28;20601;-73
2022/07/05 05:58:13;;;;;;;4.13;2.00;;;20.30;97.20;;;;;;1747770;28;20202;-73
2022/07/05 05:59:05;;;;;;;2.50;1.98;;;20.40;97.20;;;;;;1747864;28;20288;-73
2022/07/05 05:59:55;;;;;;;2.08;1.80;;;20.40;97.20;;;;;;1747979;28;20206;-73
2022/07/05 06:00:49;;;;;;;1.87;1.50;;;20.40;97.20;;;;;;1747798;28;20701;-74
2022/07/05 06:01:40;;;;;;;2.92;2.00;;;20.40;97.20;;;;;;1747208;28;20205;-74
2022/07/05 06:02:34;;;;;;;2.53;1.60;;;20.50;97.20;;;;;;1747937;28;20201;-74
2022/07/05 06:03:26;;;;;;;1.77;1.67;;;20.50;97.20;;;;;;1747743;28;20194;-74
2022/07/05 06:04:18;;;;;;;3.05;1.92;;;20.50;97.20;;;;;;1747812;28;20257;-73
2022/07/05 06:05:09;;;;;;;2.58;1.63;;;20.60;97.20;;;;;;1747964;28;20574;-74
2022/07/05 06:06:01;;;;;;;2.88;1.92;;;20.60;97.20;;;;;;1747849;28;20653;-72
2022/07/05 06:06:51;;;;;;;2.45;1.70;;;20.60;97.20;;;;;;1747640;28;20205;-73
2022/07/05 06:07:52;;;;;;;1.73;1.63;;;20.70;97.20;;;;;;1747817;28;20661;-73
2022/07/05 06:08:42;;;;;;;1.77;1.60;;;20.70;97.20;;;;;;1747869;28;20570;-73
2022/07/05 06:09:34;;;;;;;3.73;1.67;;;20.70;97.20;;;;;;1747878;28;20288;-73
2022/07/05 06:10:27;;;;;;;1.48;1.25;;;20.70;97.20;;;;;;1747716;28;20226;-73
2022/07/05 06:11:19;;;;;;;1.90;1.65;;;20.80;97.20;;;;;;1747085;28;20202;-72
2022/07/05 06:12:10;;;;;;;1.73;1.45;;;20.80;97.20;;;;;;1747909;28;20199;-73
2022/07/05 06:13:04;;;;;;;1.43;1.20;;;20.80;97.20;;;;;;1746604;28;20193;-73
2022/07/05 06:13:55;;;;;;;4.50;1.77;;;20.80;97.20;;;;;;1747633;28;20441;-73
2022/07/05 06:14:47;;;;;;;3.10;1.60;;;20.80;97.20;;;;;;1747836;28;20198;-72
2022/07/05 06:15:38;;;;;;;1.48;1.25;;;20.90;97.20;;;;;;1747509;28;20532;-73
2022/07/05 06:16:30;;;;;;;1.42;1.15;;;20.90;97.20;;;;;;1747826;28;20202;-74
2022/07/05 06:17:21;;;;;;;1.80;1.45;;;20.90;97.20;;;;;;1747493;28;20673;-73
2022/07/05 06:18:14;;;;;;;2.17;1.30;;;20.90;97.20;;;;;;1747781;28;20614;-73
2022/07/05 06:19:04;;;;;;;1.90;1.52;;;20.90;97.20;;;;;;1741410;28;20195;-73
2022/07/05 06:19:56;;;;;;;1.83;1.30;;;20.90;97.20;;;;;;1740917;28;20294;-73
2022/07/05 06:20:47;;;;;;;3.40;1.60;;;21.00;97.20;;;;;;1740819;28;20571;-73
2022/07/05 06:21:39;;;;;;;1.75;1.42;;;21.00;97.20;;;;;;1744495;28;20194;-73
2022/07/05 06:22:30;;;;;;;1.80;1.70;;;21.00;97.20;;;;;;1747912;28;20202;-73
2022/07/05 06:23:21;;;;;;;5.17;1.87;;;21.10;97.20;;;;;;1747833;28;20289;-74
2022/07/05 06:24:12;;;;;;;1.88;1.40;;;21.10;97.20;;;;;;1747788;28;20233;-72
2022/07/05 06:25:05;;;;;;;1.70;1.50;;;21.10;97.20;;;;;;1747825;28;20203;-73
2022/07/05 06:25:56;;;;;;;3.00;1.80;;;21.10;97.20;;;;;;1747759;28;20202;-74
2022/07/05 06:26:47;;;;;;;1.33;1.20;;;21.20;97.20;;;;;;1747520;28;20198;-73
2022/07/05 06:27:40;;;;;;;1.40;1.30;;;21.20;97.20;;;;;;1747788;28;20198;-73
2022/07/05 06:28:32;;;;;;;1.23;1.13;;;21.20;97.20;;;;;;1747826;28;20294;-72
2022/07/05 06:29:23;;;;;;;2.58;1.52;;;21.20;97.20;;;;;;1747791;28;20206;-73
2022/07/05 06:30:17;;;;;;;1.83;1.30;;;21.30;97.20;;;;;;1747482;28;20202;-74
2022/07/05 06:31:08;;;;;;;1.92;1.30;;;21.30;97.20;;;;;;1740926;28;20215;-73
2022/07/05 06:32:00;;;;;;;1.37;1.27;;;21.30;97.20;;;;;;1740851;28;20282;-73
2022/07/05 06:32:52;;;;;;;2.72;1.25;;;21.30;97.20;;;;;;1740898;28;20682;-73
2022/07/05 06:33:45;;;;;;;2.90;1.50;;;21.40;97.20;;;;;;1740834;28;20199;-73
2022/07/05 06:34:36;;;;;;;1.40;1.30;;;21.40;97.20;;;;;;1743038;28;20195;-74
2022/07/05 06:35:28;;;;;;;1.47;1.37;;;21.40;97.20;;;;;;1747850;28;20208;-73
2022/07/05 06:36:19;;;;;;;2.63;1.80;;;21.40;97.20;;;;;;1747681;28;20205;-73
2022/07/05 06:37:11;;;;;;;3.05;1.60;;;21.40;97.20;;;;;;1747513;28;20252;-73
2022/07/05 06:38:04;;;;;;;2.15;1.60;;;21.50;97.20;;;;;;1747567;28;20223;-73
2022/07/05 06:38:55;;;;;;;2.10;1.50;;;21.50;97.20;;;;;;1748223;28;20599;-73
2022/07/05 06:39:46;;;;;;;2.25;1.63;;;21.50;97.20;;;;;;1749007;28;20194;-73
2022/07/05 06:40:41;;;;;;;1.90;1.40;;;21.50;97.20;;;;;;1748617;28;20301;-73
2022/07/05 06:41:32;;;;;;;2.20;1.33;;;21.60;97.20;;;;;;1749078;28;20536;-73
2022/07/05 06:42:24;;;;;;;2.60;1.50;;;21.60;97.20;;;;;;1749001;28;20202;-73
2022/07/05 06:43:15;;;;;;;2.00;1.38;;;21.60;97.20;;;;;;1749185;28;21138;-73
2022/07/05 06:44:07;;;;;;;1.47;1.30;;;21.60;97.20;;;;;;1749114;28;20665;-73
2022/07/05 06:44:57;;;;;;;4.95;1.85;;;21.60;97.20;;;;;;1749017;28;20203;-73
2022/07/05 06:45:49;;;;;;;1.70;1.30;;;21.60;97.20;;;;;;1749002;28;20206;-73
2022/07/05 06:46:40;;;;;;;4.32;2.13;;;21.70;97.20;;;;;;1748724;28;20194;-73
2022/07/05 06:47:32;;;;;;;2.10;1.43;;;21.70;97.20;;;;;;1749064;28;20230;-73
2022/07/05 06:48:23;;;;;;;3.17;1.55;;;21.70;97.20;;;;;;1748968;28;20685;-72
2022/07/05 06:49:16;;;;;;;2.33;1.63;;;21.70;97.20;;;;;;1749106;28;20725;-73
2022/07/05 06:50:07;;;;;;;2.20;1.65;;;21.80;97.20;;;;;;1748844;28;20210;-73
2022/07/05 06:50:59;;;;;;;2.10;1.50;;;21.80;97.20;;;;;;1742133;28;20219;-73
2022/07/05 06:51:50;;;;;;;2.35;1.30;;;21.80;97.20;;;;;;1742092;28;20654;-73
2022/07/05 06:52:42;;;;;;;2.70;1.60;;;21.90;97.20;;;;;;1742087;28;20631;-74
2022/07/05 06:53:32;;;;;;;1.50;1.23;;;21.90;97.20;;;;;;1742157;28;20206;-73
2022/07/05 06:54:24;;;;;;;2.60;1.53;;;21.90;97.20;;;;;;1742111;28;20199;-73
2022/07/05 06:55:15;;;;;;;2.00;1.20;;;21.90;97.20;;;;;;1742212;28;20199;-74
2022/07/05 06:56:07;;;;;;;2.93;1.27;;;22.00;97.20;;;;;;1742038;28;20690;-73
2022/07/05 06:56:57;;;;;;;2.67;2.10;;;22.00;97.20;;;;;;1741754;28;20219;-73
2022/07/05 06:57:49;;;;;;;4.17;1.50;;;22.00;97.20;;;;;;1741877;28;20197;-73
2022/07/05 06:58:40;;;;;;;2.72;1.42;;;22.00;97.20;;;;;;1742054;28;20203;-73
2022/07/05 06:59:32;;;;;;;3.08;1.73;;;22.00;97.20;;;;;;1742041;28;20256;-73
2022/07/05 07:00:23;;;;;;;2.55;1.40;;;22.00;97.20;;;;;;1743924;28;20238;-73
2022/07/05 07:01:14;;;;;;;1.50;1.40;;;22.00;97.20;;;;;;1749006;28;20194;-72
2022/07/05 07:02:05;;;;;;;1.20;1.10;;;22.00;97.20;;;;;;1748910;28;20717;-73
2022/07/05 07:02:57;;;;;;;1.70;1.40;;;22.00;97.20;;;;;;1748938;28;20285;-73
2022/07/05 07:03:48;;;;;;;2.50;1.33;;;22.00;97.20;;;;;;1748926;28;20207;-73
2022/07/05 07:04:41;;;;;;;2.00;1.70;;;22.00;97.20;;;;;;1748921;28;20226;-73
2022/07/05 07:05:32;;;;;;;1.77;1.40;;;22.00;97.20;;;;;;1749041;28;20680;-73
2022/07/05 07:06:24;;;;;;;1.30;1.20;;;22.00;97.20;;;;;;1748913;28;20728;-74
2022/07/05 07:09:33;;;;;;;2.72;1.50;;;22.10;97.20;;;;;;1749028;28;20244;-73
2022/07/05 07:10:25;;;;;;;1.60;1.50;;;22.10;97.20;;;;;;1747764;28;20272;-74
2022/07/05 07:11:16;;;;;;;3.00;1.70;;;22.10;97.20;;;;;;1745482;28;20222;-73
2022/07/05 07:12:09;;;;;;;2.30;1.15;;;22.20;97.20;;;;;;1744676;28;20663;-74
2022/07/05 07:13:01;;;;;;;2.97;1.35;;;22.20;97.20;;;;;;1745675;28;20269;-73
2022/07/05 07:13:52;;;;;;;3.47;1.85;;;22.20;97.20;;;;;;1745899;28;20207;-73
2022/07/05 07:14:43;;;;;;;3.58;1.55;;;22.20;97.20;;;;;;1744640;28;20205;-74
2022/07/05 07:15:35;;;;;;;4.67;1.47;;;22.30;97.20;;;;;;1744921;28;20642;-72
2022/07/05 07:16:26;;;;;;;3.40;1.40;;;22.30;97.20;;;;;;1745855;28;20268;-74
2022/07/05 07:17:18;;;;;;;2.30;1.60;;;22.30;97.20;;;;;;1744890;28;20194;-74
2022/07/05 07:18:09;;;;;;;2.70;1.55;;;22.30;97.20;;;;;;1744411;28;20483;-73
2022/07/05 07:19:00;;;;;;;2.53;1.70;;;22.40;97.20;;;;;;1745598;28;20226;-74
2022/07/05 07:19:52;;;;;;;2.13;1.50;;;22.40;97.20;;;;;;1745903;28;20460;-74
2022/07/05 07:20:44;;;;;;;2.10;1.30;;;22.40;97.20;;;;;;1743660;28;20689;-74
2022/07/05 07:21:35;;;;;;;2.45;1.48;;;22.50;97.20;;;;;;1745432;28;20676;-73
2022/07/05 07:22:27;;;;;;;2.15;1.50;;;22.50;97.20;;;;;;1744596;28;20195;-74
2022/07/05 07:23:19;;;;;;;4.88;1.90;;;22.50;97.20;;;;;;1745362;28;20207;-74
2022/07/05 07:24:11;;;;;;;3.45;1.83;;;22.60;97.20;;;;;;1746024;28;20199;-73
2022/07/05 07:25:05;;;;;;;2.13;1.70;;;22.60;97.20;;;;;;1744459;28;20198;-73
2022/07/05 07:25:56;;;;;;;1.60;1.50;;;22.60;97.20;;;;;;1744997;28;20203;-74
2022/07/05 07:27:06;;;;;;;1.95;1.70;;;22.70;97.20;;;;;;1745602;28;20565;-74
2022/07/05 07:27:57;;;;;;;3.05;1.95;;;22.70;97.20;;;;;;1745104;28;20206;-73
2022/07/05 07:28:48;;;;;;;2.20;2.00;;;22.70;97.20;;;;;;1745936;28;20195;-73
2022/07/05 07:29:41;;;;;;;2.33;1.80;;;22.70;97.20;;;;;;1744942;28;20237;-73
2022/07/05 07:30:32;;;;;;;2.75;1.60;;;22.80;97.20;;;;;;1744127;28;20226;-74
2022/07/05 07:31:25;;;;;;;3.93;1.60;;;22.80;97.20;;;;;;1744365;28;20225;-74
2022/07/05 07:32:16;;;;;;;4.30;2.05;;;22.80;97.20;;;;;;1744517;28;20206;-74
2022/07/05 07:33:07;;;;;;;4.40;1.70;;;22.80;97.20;;;;;;1745583;28;20654;-74
2022/07/05 07:33:58;;;;;;;4.03;1.63;;;22.80;97.20;;;;;;1745742;28;20588;-73
2022/07/05 07:34:50;;;;;;;1.80;1.70;;;22.90;97.20;;;;;;1744478;28;20190;-73
2022/07/05 07:35:43;;;;;;;2.75;1.40;;;22.90;97.20;;;;;;1744833;28;20199;-72
2022/07/05 07:36:36;;;;;;;1.50;1.40;;;22.90;97.20;;;;;;1745592;28;20218;-73
2022/07/05 07:37:26;;;;;;;4.07;1.60;;;22.90;97.20;;;;;;1744736;28;20235;-74
2022/07/05 07:38:18;;;;;;;1.67;1.50;;;22.90;97.20;;;;;;1744321;28;20304;-73
2022/07/05 07:39:09;;;;;;;1.48;1.23;;;23.00;97.20;;;;;;1744439;28;20206;-73
2022/07/05 07:40:02;;;;;;;3.10;1.30;;;23.00;97.20;;;;;;1744631;28;20277;-73
2022/07/05 07:40:53;;;;;;;3.53;1.35;;;23.00;97.20;;;;;;1745471;28;20452;-73
2022/07/05 07:41:45;;;;;;;1.93;1.60;;;23.00;97.20;;;;;;1744836;28;20186;-73
2022/07/05 07:42:36;;;;;;;3.38;1.63;;;23.10;97.20;;;;;;1744392;28;20456;-73
2022/07/05 07:43:28;;;;;;;1.88;1.20;;;23.10;97.20;;;;;;1745552;28;20242;-73
2022/07/05 07:44:19;;;;;;;2.78;1.50;;;23.10;97.20;;;;;;1745657;28;20692;-74
2022/07/05 07:45:11;;;;;;;1.17;1.08;;;23.10;97.20;;;;;;1744506;28;20567;-73
2022/07/05 07:46:02;;;;;;;2.60;1.60;;;23.10;97.20;;;;;;1744841;28;20211;-73
2022/07/05 07:46:54;;;;;;;5.37;1.40;;;23.10;97.20;;;;;;1745560;28;20741;-74
2022/07/05 07:47:45;;;;;;;3.65;1.63;;;23.10;97.20;;;;;;1744654;28;20251;-73
2022/07/05 07:48:37;;;;;;;1.50;1.37;;;23.10;97.20;;;;;;1744336;28;20195;-73
2022/07/05 07:49:27;;;;;;;1.88;1.45;;;23.10;97.20;;;;;;1745708;28;20561;-74
2022/07/05 07:50:19;;;;;;;1.77;1.53;;;23.10;97.20;;;;;;1745089;28;20198;-74
2022/07/05 07:51:11;;;;;;;2.05;1.52;;;23.20;97.20;;;;;;1743890;28;20211;-73
2022/07/05 07:52:04;;;;;;;3.78;1.50;;;23.20;97.20;;;;;;1744183;28;20255;-74
2022/07/05 07:52:54;;;;;;;5.75;1.50;;;23.20;97.20;;;;;;1745388;28;20202;-73
2022/07/05 07:53:46;;;;;;;3.27;1.60;;;23.20;97.20;;;;;;1744989;28;20290;-73
2022/07/05 07:54:38;;;;;;;2.00;1.48;;;23.20;97.20;;;;;;1743906;28;20657;-74
2022/07/05 07:55:29;;;;;;;2.90;1.70;;;23.20;97.20;;;;;;1744833;28;20202;-74
2022/07/05 07:56:20;;;;;;;5.30;1.80;;;23.20;97.20;;;;;;1745371;28;20649;-73
2022/07/05 07:57:11;;;;;;;2.85;1.50;;;23.20;97.20;;;;;;1743821;28;20456;-73
2022/07/05 07:58:03;;;;;;;2.80;1.30;;;23.20;97.20;;;;;;1743752;28;20286;-74
2022/07/05 07:58:54;;;;;;;2.13;1.65;;;23.10;97.20;;;;;;1744024;28;20622;-74
2022/07/05 07:59:46;;;;;;;1.60;1.50;;;23.10;97.20;;;;;;1744352;28;20427;-74
2022/07/05 08:00:37;;;;;;;2.47;1.40;;;23.10;97.20;;;;;;1745812;28;20830;-73
2022/07/05 08:01:28;;;;;;;3.37;1.40;;;23.10;97.20;;;;;;1744681;28;20190;-73
2022/07/05 08:02:22;;;;;;;2.40;1.40;;;23.10;97.20;;;;;;1744007;28;20198;-74
2022/07/05 08:03:13;;;;;;;2.47;1.70;;;23.10;97.20;;;;;;1744069;28;20209;-74
2022/07/05 08:04:05;;;;;;;2.33;1.57;;;23.10;97.20;;;;;;1743988;28;20231;-74
2022/07/05 08:04:57;;;;;;;1.70;1.35;;;23.10;97.20;;;;;;1745356;28;20203;-73
2022/07/05 08:05:48;;;;;;;3.90;1.58;;;23.10;97.20;;;;;;1744396;28;20202;-74
2022/07/05 08:06:41;;;;;;;2.40;1.50;;;23.10;97.20;;;;;;1743786;28;20277;-74
2022/07/05 08:07:32;;;;;;;1.58;1.13;;;23.10;97.20;;;;;;1745201;28;20195;-74
2022/07/05 08:08:24;;;;;;;4.83;1.80;;;23.10;97.20;;;;;;1745106;28;20285;-74
2022/07/05 08:09:15;;;;;;;1.83;1.50;;;23.10;97.20;;;;;;1743988;28;20199;-74
2022/07/05 08:10:08;;;;;;;1.90;1.30;;;23.10;97.20;;;;;;1744213;28;20278;-74
2022/07/05 08:10:59;;;;;;;3.53;1.67;;;23.20;97.20;;;;;;1744974;28;20207;-73
2022/07/05 08:11:51;;;;;;;1.40;1.30;;;23.20;97.20;;;;;;1745328;28;20269;-73
2022/07/05 08:12:42;;;;;;;1.75;1.50;;;23.30;97.20;;;;;;1748424;28;20213;-72
2022/07/05 08:13:34;;;;;;;3.00;1.57;;;23.30;97.20;;;;;;1748523;28;20293;-73
2022/07/05 08:14:24;;;;;;;2.03;1.30;;;23.40;97.20;;;;;;1742046;28;20199;-73
2022/07/05 08:15:17;;;;;;;1.77;1.27;;;23.40;97.20;;;;;;1741583;28;20203;-73
2022/07/05 08:16:08;;;;;;;2.70;1.73;;;23.50;97.20;;;;;;1741419;28;20218;-73
2022/07/05 08:17:00;;;;;;;2.50;1.98;;;23.50;97.20;;;;;;1745300;28;20222;-73
2022/07/05 08:21:30;;;;;;;4.55;2.67;;;23.80;97.20;;;;;;1748511;28;20205;-72
2022/07/05 08:22:24;;;;;;;4.63;1.90;;;23.80;97.20;;;;;;1748435;28;20203;-72
2022/07/05 08:23:15;;;;;;;2.17;1.50;;;23.90;97.20;;;;;;1745104;28;20445;-72
2022/07/05 08:24:08;;;;;;;1.53;1.30;;;23.90;97.20;;;;;;1745546;28;20290;-72
2022/07/05 08:24:59;;;;;;;2.30;1.75;;;23.90;97.20;;;;;;1742714;28;20210;-72
2022/07/05 08:25:51;;;;;;;4.10;1.50;;;24.00;97.20;;;;;;1747106;28;20201;-73
2022/07/05 08:26:42;;;;;;;1.92;1.50;;;24.00;97.20;;;;;;1747072;28;20202;-72
2022/07/05 08:27:33;;;;;;;1.30;1.20;;;24.10;97.20;;;;;;1746735;28;20281;-73
2022/07/05 08:28:25;;;;;;;1.37;1.27;;;24.10;97.20;;;;;;1746430;28;20442;-72
2022/07/05 08:29:17;;;;;;;1.70;1.60;;;24.10;97.20;;;;;;1746093;28;20444;-72
2022/07/05 08:30:10;;;;;;;2.73;1.40;;;24.20;97.20;;;;;;1745496;28;20198;-72
2022/07/05 08:31:01;;;;;;;2.37;1.80;;;24.20;97.20;;;;;;1744344;28;20441;-72
2022/07/05 08:31:52;;;;;;;2.33;1.60;;;24.30;97.20;;;;;;1745231;28;20449;-72
2022/07/05 08:32:44;;;;;;;2.73;1.80;;;24.30;97.20;;;;;;1745210;28;20439;-72
2022/07/05 08:33:35;;;;;;;3.00;1.70;;;24.40;97.20;;;;;;1743370;28;20820;-72
2022/07/05 08:34:27;;;;;;;1.73;1.10;;;24.40;97.20;;;;;;1745333;28;20852;-73
2022/07/05 08:35:17;;;;;;;3.83;1.60;;;24.40;97.20;;;;;;1744840;28;20447;-72
2022/07/05 08:36:09;;;;;;;1.40;0.97;;;24.50;97.20;;;;;;1743877;28;20277;-73
2022/07/05 08:37:00;;;;;;;4.43;1.60;;;24.50;97.20;;;;;;1746570;28;20448;-73
2022/07/05 08:37:54;;;;;;;1.80;1.20;;;24.50;97.20;;;;;;1745276;28;20444;-73
2022/07/05 08:38:45;;;;;;;1.87;1.20;;;24.60;97.20;;;;;;1743758;28;20229;-72
2022/07/05 08:39:36;;;;;;;1.23;1.13;;;24.60;97.20;;;;;;1744032;28;20445;-72
2022/07/05 08:40:32;;;;;;;1.50;1.17;;;24.60;97.20;;;;;;1745135;28;20465;-72
2022/07/05 08:41:24;;;;;;;2.13;1.10;;;24.70;97.20;;;;;;1744208;28;20809;-73
2022/07/05 08:42:16;;;;;;;2.07;1.43;;;24.70;97.20;;;;;;1743989;28;20832;-72
2022/07/05 08:43:08;;;;;;;1.53;1.40;;;24.70;97.20;;;;;;1742924;28;20485;-72
2022/07/05 08:44:02;;;;;;;2.77;1.23;;;24.80;97.20;;;;;;1744444;28;20937;-72
2022/07/05 08:44:55;;;;;;;2.50;1.40;;;24.80;97.20;;;;;;1745108;28;20461;-73
2022/07/05 08:45:50;;;;;;;2.57;1.40;;;24.90;97.20;;;;;;1743733;28;20460;-73
2022/07/05 08:46:41;;;;;;;2.35;1.20;;;24.90;97.20;;;;;;1743971;28;20438;-73
2022/07/05 08:47:35;;;;;;;2.57;1.50;;;24.90;97.20;;;;;;1743983;28;20237;-73
2022/07/05 08:48:27;;;;;;;1.40;1.30;;;25.00;97.20;;;;;;1743761;28;20441;-72
2022/07/05 08:49:23;;;;;;;4.23;1.37;;;25.00;97.20;;;;;;1746128;28;20445;-72
2022/07/05 08:50:15;;;;;;;3.77;1.47;;;25.10;97.20;;;;;;1743857;28;20516;-73
2022/07/05 08:51:08;;;;;;;1.67;1.23;;;25.10;97.20;;;;;;1745035;28;20438;-72
2022/07/05 08:52:03;;;;;;;1.90;1.33;;;25.10;97.20;;;;;;1744534;28;20210;-72
2022/07/05 08:52:58;;;;;;;2.70;1.43;;;25.10;97.20;;;;;;1743964;28;20194;-72
2022/07/05 08:53:50;;;;;;;2.78;1.27;;;25.20;97.20;;;;;;1743793;28;20441;-72
2022/07/05 08:54:43;;;;;;;2.20;1.20;;;25.20;97.20;;;;;;1744628;28;20231;-72
2022/07/05 08:55:33;;;;;;;1.60;1.50;;;25.20;97.20;;;;;;1745117;28;20664;-72
2022/07/05 08:56:25;;;;;;;4.80;1.90;;;25.20;97.20;;;;;;1743670;28;20455;-73
2022/07/05 08:57:16;;;;;;;2.10;1.57;;;25.20;97.20;;;;;;1744245;28;20445;-73
2022/07/05 08:58:08;;;;;;;5.93;1.30;;;25.20;97.20;;;;;;1744659;28;20467;-72
2022/07/05 08:59:00;;;;;;;2.00;1.52;;;25.30;97.20;;;;;;1743292;28;20218;-72
2022/07/05 08:59:52;;;;;;;1.30;1.20;;;25.30;97.20;;;;;;1743844;28;20191;-73
2022/07/05 09:00:43;;;;;;;1.80;1.23;;;25.40;97.20;;;;;;1744319;28;20843;-72
2022/07/05 09:01:36;;;;;;;5.07;1.27;;;25.40;97.20;;;;;;1742025;28;20453;-72
2022/07/05 09:02:27;;;;;;;2.30;1.50;;;25.40;97.20;;;;;;1747234;28;20452;-73
2022/07/05 09:03:22;;;;;;;1.60;1.50;;;25.40;97.20;;;;;;1746196;28;20535;-73
2022/07/05 09:04:16;;;;;;;2.93;1.13;;;25.50;97.20;;;;;;1746627;28;20441;-73
2022/07/05 09:05:12;;;;;;;2.00;1.80;;;25.50;97.20;;;;;;1745914;28;20509;-73
2022/07/05 09:06:06;;;;;;;4.38;1.60;;;25.50;97.20;;;;;;1745496;28;20440;-72
2022/07/05 09:07:04;;;;;;;3.37;1.13;;;25.60;97.20;;;;;;1743149;28;20625;-72
2022/07/05 09:07:58;;;;;;;3.78;1.35;;;25.60;97.20;;;;;;1744402;28;20452;-72
2022/07/05 09:08:54;;;;;;;1.20;1.10;;;25.60;97.20;;;;;;1744376;28;20191;-73
2022/07/05 09:09:47;;;;;;;2.33;1.60;;;25.60;97.20;;;;;;1743322;28;20661;-72
2022/07/05 09:10:43;;;;;;;1.58;1.40;;;25.60;97.20;;;;;;1743332;28;20465;-73
2022/07/05 09:11:37;;;;;;;2.65;1.30;;;25.70;97.20;;;;;;1744364;28;20187;-72
2022/07/05 09:12:29;;;;;;;1.58;1.25;;;25.70;97.20;;;;;;1744444;28;20186;-72
2022/07/05 09:13:20;;;;;;;2.05;1.20;;;25.70;97.20;;;;;;1743442;28;20198;-72
2022/07/05 09:14:20;;;;;;;2.70;1.30;;;25.70;97.20;;;;;;1743786;28;20190;-72
2022/07/05 09:15:11;;;;;;;3.40;1.52;;;25.70;97.20;;;;;;1744063;28;20265;-72
2022/07/05 09:16:03;;;;;;;1.80;1.07;;;25.70;97.20;;;;;;1743219;28;20205;-72
2022/07/05 09:16:56;;;;;;;3.75;1.58;;;25.70;97.20;;;;;;1743757;28;20203;-72
2022/07/05 09:17:48;;;;;;;1.30;1.10;;;25.70;97.20;;;;;;1744571;28;20199;-73
2022/07/05 09:18:43;;;;;;;1.25;1.15;;;25.80;97.20;;;;;;1743123;28;20208;-73
2022/07/05 09:19:36;;;;;;;2.20;1.40;;;25.80;97.20;;;;;;1744480;28;20606;-72
2022/07/05 09:20:27;;;;;;;1.77;1.27;;;25.80;97.20;;;;;;1744467;28;20229;-72
2022/07/05 09:21:21;;;;;;;2.93;1.50;;;25.80;97.20;;;;;;1743398;28;20305;-72
2022/07/05 09:22:12;;;;;;;1.10;1.00;;;25.90;97.20;;;;;;1745293;28;20202;-72
2022/07/05 09:23:05;;;;;;;2.40;1.20;;;25.90;97.20;;;;;;1744574;28;20199;-72
2022/07/05 09:23:57;;;;;;;1.80;1.50;;;25.90;97.20;;;;;;1743455;28;20767;-73
2022/07/05 09:24:49;;;;;;;2.40;1.70;;;25.90;97.20;;;;;;1743344;28;20442;-73
2022/07/05 09:25:40;;;;;;;2.50;1.37;;;26.00;97.20;;;;;;1744569;28;20814;-73
2022/07/05 09:26:38;;;;;;;2.65;1.20;;;26.00;97.20;;;;;;1744069;28;20449;-73
2022/07/05 09:27:32;;;;;;;1.43;1.33;;;26.00;97.20;;;;;;1742993;28;20196;-72
2022/07/05 09:28:23;;;;;;;1.60;1.07;;;26.00;97.20;;;;;;1744561;28;20438;-73
2022/07/05 09:29:18;;;;;;;2.10;1.25;;;26.00;97.20;;;;;;1743659;28;20764;-72
2022/07/05 09:30:10;;;;;;;2.58;1.40;;;26.00;97.20;;;;;;1742141;28;20199;-72
2022/07/05 09:31:02;;;;;;;2.33;1.50;;;26.10;97.20;;;;;;1744657;28;20216;-73
2022/07/05 09:31:53;;;;;;;3.83;1.27;;;26.10;97.20;;;;;;1743896;28;20190;-72
2022/07/05 09:32:44;;;;;;;2.30;1.20;;;26.10;97.20;;;;;;1745097;28;20477;-73
2022/07/05 09:33:49;;;;;;;1.92;1.60;;;26.20;97.20;;;;;;1747841;28;20237;-72
2022/07/05 09:34:41;;;;;;;1.70;1.10;;;26.20;97.20;;;;;;1746183;28;20186;-72
2022/07/05 09:35:33;;;;;;;1.77;1.40;;;26.20;97.20;;;;;;1745484;28;20449;-72
2022/07/05 09:36:25;;;;;;;1.92;1.50;;;26.30;97.20;;;;;;1746961;28;20657;-73
2022/07/05 09:37:15;;;;;;;1.40;1.27;;;26.30;97.20;;;;;;1747614;28;20199;-73